This is the latest recevied weather packets stored in our database for station/object KE3HG-2. If no packets are shown the sender has not sent any weather packets the latest 1 day(s).
| Time | Temp. | Humidity | Pressure | Rain* | Wind** | Luminosity | Snow |
|---|---|---|---|---|---|---|---|
| 1777985688 | 20.56° C | 42% | 757.5 hPa | 0 mm | 0 m/s | - | - |
| 1777984697 | 20° C | 44% | 757.5 hPa | 0 mm | 0.45 m/s, 179° | - | - |
| 1777984097 | 19.44° C | 45% | 757.5 hPa | 0 mm | 0.45 m/s, 179° | - | - |
| 1777983497 | 18.89° C | 46% | 757.5 hPa | 0 mm | 0.45 m/s, 41° | - | - |
| 1777982508 | 17.78° C | 50% | 757.5 hPa | 0 mm | 0.45 m/s, 41° | - | - |
| 1777981908 | 16.67° C | 52% | 757.5 hPa | 0 mm | 0 m/s | - | - |
| 1777981309 | 15.56° C | 55% | 757.5 hPa | 0 mm | 0 m/s | - | - |
| 1777980325 | 14.44° C | 58% | 757.5 hPa | 0 mm | 0.45 m/s, 56° | - | - |
| 1777979725 | 13.89° C | 59% | 757.5 hPa | 0 mm | 0 m/s | - | - |
| 1777979125 | 13.33° C | 60% | 757.5 hPa | 0 mm | 0 m/s | - | - |
| 1777978134 | 13.33° C | 61% | 757.5 hPa | 0 mm | 0 m/s | - | - |
| 1777977534 | 13.33° C | 61% | 757.5 hPa | 0 mm | 0 m/s | - | - |
| 1777976935 | 13.33° C | 60% | 757.5 hPa | 0 mm | 0 m/s | - | - |
| 1777975954 | 13.33° C | 60% | 757.5 hPa | 0 mm | 0 m/s | - | - |
| 1777975353 | 13.89° C | 59% | 757.5 hPa | 0 mm | 0 m/s | - | - |
| 1777974753 | 13.89° C | 58% | 757.5 hPa | 0 mm | 0 m/s | - | - |
| 1777973768 | 13.89° C | 58% | 757.5 hPa | 0 mm | 0 m/s | - | - |
| 1777973169 | 13.89° C | 58% | 757.5 hPa | 0 mm | 0.45 m/s, 39° | - | - |
| 1777972569 | 13.89° C | 57% | 757.5 hPa | 0 mm | 0 m/s | - | - |
| 1777971595 | 14.44° C | 55% | 757.5 hPa | 0 mm | 0 m/s | - | - |
| 1777970995 | 15° C | 54% | 757.5 hPa | 0 mm | 0 m/s | - | - |
| 1777970396 | 15.56° C | 54% | 757.5 hPa | 0 mm | 0 m/s | - | - |
| 1777969448 | 15.56° C | 53% | 757.5 hPa | 0 mm | 0 m/s | - | - |
| 1777968848 | 15.56° C | 52% | 757.5 hPa | 0 mm | 0 m/s | - | - |
| 1777968249 | 16.11° C | 52% | 757.5 hPa | 0 mm | 0 m/s | - | - |
* Rain latest hour (hover to see other rain measurements)
** Current wind speed in m/s (hover to see current wind gust speed)